sensor_id;sensor_type;location;lat;lon;timestamp;pressure;altitude;pressure_sealevel;temperature;humidity
71857;BME280;63344;46.980;28.882;2024-01-15T00:02:01;99873.81;;;-8.41;84.71
71857;BME280;63344;46.980;28.882;2024-01-15T00:04:29;99877.47;;;-8.31;84.96
71857;BME280;63344;46.980;28.882;2024-01-15T00:07:01;99876.50;;;-8.36;84.39
71857;BME280;63344;46.980;28.882;2024-01-15T00:09:33;99881.38;;;-8.47;84.06
71857;BME280;63344;46.980;28.882;2024-01-15T00:12:01;99887.38;;;-8.48;84.48
71857;BME280;63344;46.980;28.882;2024-01-15T00:14:29;99872.94;;;-8.41;85.10
71857;BME280;63344;46.980;28.882;2024-01-15T00:16:56;99889.16;;;-8.10;85.64
71857;BME280;63344;46.980;28.882;2024-01-15T00:19:52;99887.50;;;-7.70;86.27
71857;BME280;63344;46.980;28.882;2024-01-15T00:22:19;99860.28;;;-7.95;84.34
71857;BME280;63344;46.980;28.882;2024-01-15T00:24:47;99876.53;;;-8.34;82.52
71857;BME280;63344;46.980;28.882;2024-01-15T00:27:16;99879.25;;;-8.63;82.72
71857;BME280;63344;46.980;28.882;2024-01-15T00:29:43;99898.00;;;-8.67;83.16
71857;BME280;63344;46.980;28.882;2024-01-15T00:32:11;99897.59;;;-8.83;83.49
71857;BME280;63344;46.980;28.882;2024-01-15T00:34:41;99895.81;;;-8.85;83.69
71857;BME280;63344;46.980;28.882;2024-01-15T00:37:11;99895.91;;;-8.82;83.86
71857;BME280;63344;46.980;28.882;2024-01-15T00:39:39;99894.22;;;-8.82;83.98
71857;BME280;63344;46.980;28.882;2024-01-15T00:42:07;99896.09;;;-8.76;84.38
71857;BME280;63344;46.980;28.882;2024-01-15T00:44:37;99882.25;;;-8.79;84.62
71857;BME280;63344;46.980;28.882;2024-01-15T00:47:05;99865.63;;;-8.59;85.78
71857;BME280;63344;46.980;28.882;2024-01-15T00:49:33;99859.41;;;-8.32;86.67
71857;BME280;63344;46.980;28.882;2024-01-15T00:52:01;99872.97;;;-8.05;86.66
71857;BME280;63344;46.980;28.882;2024-01-15T00:54:29;99857.75;;;-7.94;86.18
71857;BME280;63344;46.980;28.882;2024-01-15T00:56:58;99851.59;;;-8.01;85.50
71857;BME280;63344;46.980;28.882;2024-01-15T00:59:26;99849.25;;;-7.90;85.77
71857;BME280;63344;46.980;28.882;2024-01-15T01:01:53;99848.84;;;-8.07;84.85
71857;BME280;63344;46.980;28.882;2024-01-15T01:04:20;99847.31;;;-8.36;83.84
71857;BME280;63344;46.980;28.882;2024-01-15T01:06:48;99872.09;;;-8.40;84.04
71857;BME280;63344;46.980;28.882;2024-01-15T01:09:21;99872.97;;;-8.39;85.04
71857;BME280;63344;46.980;28.882;2024-01-15T01:11:52;99843.69;;;-8.45;85.83
71857;BME280;63344;46.980;28.882;2024-01-15T01:14:22;99862.97;;;-8.27;85.55
71857;BME280;63344;46.980;28.882;2024-01-15T01:16:49;99859.56;;;-8.26;85.14
71857;BME280;63344;46.980;28.882;2024-01-15T01:19:20;99865.59;;;-8.26;85.07
71857;BME280;63344;46.980;28.882;2024-01-15T01:21:47;99826.34;;;-8.52;84.38
71857;BME280;63344;46.980;28.882;2024-01-15T01:24:15;99855.84;;;-8.37;84.94
71857;BME280;63344;46.980;28.882;2024-01-15T01:26:57;99822.63;;;-8.63;84.73
71857;BME280;63344;46.980;28.882;2024-01-15T01:29:43;99859.22;;;-8.42;84.47
71857;BME280;63344;46.980;28.882;2024-01-15T01:32:11;99843.69;;;-8.45;85.07
71857;BME280;63344;46.980;28.882;2024-01-15T01:34:41;99859.13;;;-8.45;83.91
71857;BME280;63344;46.980;28.882;2024-01-15T01:37:13;99848.91;;;-8.76;83.83
71857;BME280;63344;46.980;28.882;2024-01-15T01:39:48;99831.38;;;-8.90;84.14
71857;BME280;63344;46.980;28.882;2024-01-15T01:42:16;99853.47;;;-8.98;83.86
71857;BME280;63344;46.980;28.882;2024-01-15T01:44:45;99837.72;;;-9.09;83.95
71857;BME280;63344;46.980;28.882;2024-01-15T01:47:12;99843.94;;;-9.02;84.68
71857;BME280;63344;46.980;28.882;2024-01-15T01:49:40;99858.78;;;-8.92;84.87
71857;BME280;63344;46.980;28.882;2024-01-15T01:52:10;99851.97;;;-8.90;84.58
71857;BME280;63344;46.980;28.882;2024-01-15T01:55:05;99861.66;;;-8.79;84.89
71857;BME280;63344;46.980;28.882;2024-01-15T01:57:34;99836.53;;;-8.90;85.01
71857;BME280;63344;46.980;28.882;2024-01-15T02:00:03;99863.59;;;-8.72;85.64
71857;BME280;63344;46.980;28.882;2024-01-15T02:02:32;99839.44;;;-8.77;85.67
71857;BME280;63344;46.980;28.882;2024-01-15T02:04:59;99833.47;;;-8.76;85.49
71857;BME280;63344;46.980;28.882;2024-01-15T02:07:27;99846.66;;;-8.64;85.44
71857;BME280;63344;46.980;28.882;2024-01-15T02:09:55;99821.84;;;-8.60;86.03
71857;BME280;63344;46.980;28.882;2024-01-15T02:12:22;99835.19;;;-8.41;85.56
71857;BME280;63344;46.980;28.882;2024-01-15T02:14:50;99846.66;;;-8.28;85.66
71857;BME280;63344;46.980;28.882;2024-01-15T02:17:17;99844.13;;;-8.26;85.76
71857;BME280;63344;46.980;28.882;2024-01-15T02:19:45;99847.09;;;-8.46;84.85
71857;BME280;63344;46.980;28.882;2024-01-15T02:22:12;99846.00;;;-8.55;85.14
71857;BME280;63344;46.980;28.882;2024-01-15T02:24:39;99779.69;;;-8.99;84.92
71857;BME280;63344;46.980;28.882;2024-01-15T02:27:07;99818.78;;;-8.80;85.15
71857;BME280;63344;46.980;28.882;2024-01-15T02:29:35;99823.13;;;-8.78;85.51
71857;BME280;63344;46.980;28.882;2024-01-15T02:32:05;99790.88;;;-8.98;85.35
71857;BME280;63344;46.980;28.882;2024-01-15T02:34:37;99813.28;;;-8.93;85.05
71857;BME280;63344;46.980;28.882;2024-01-15T02:37:06;99834.06;;;-8.85;84.80
71857;BME280;63344;46.980;28.882;2024-01-15T02:39:33;99833.84;;;-8.94;84.98
71857;BME280;63344;46.980;28.882;2024-01-15T02:42:01;99833.81;;;-8.96;84.75
71857;BME280;63344;46.980;28.882;2024-01-15T02:44:30;99839.09;;;-8.90;85.10
71857;BME280;63344;46.980;28.882;2024-01-15T02:46:58;99835.84;;;-8.83;85.51
71857;BME280;63344;46.980;28.882;2024-01-15T02:49:25;99815.31;;;-8.81;85.41
71857;BME280;63344;46.980;28.882;2024-01-15T02:51:52;99841.81;;;-8.52;85.63
71857;BME280;63344;46.980;28.882;2024-01-15T02:54:21;99833.59;;;-8.35;86.61
71857;BME280;63344;46.980;28.882;2024-01-15T02:56:49;99822.47;;;-8.34;85.95
71857;BME280;63344;46.980;28.882;2024-01-15T02:59:20;99802.69;;;-8.35;86.21
71857;BME280;63344;46.980;28.882;2024-01-15T03:01:47;99826.63;;;-8.03;87.03
71857;BME280;63344;46.980;28.882;2024-01-15T03:04:15;99810.38;;;-8.01;87.08
71857;BME280;63344;46.980;28.882;2024-01-15T03:06:42;99805.06;;;-8.07;86.80
71857;BME280;63344;46.980;28.882;2024-01-15T03:09:10;99812.00;;;-8.04;86.40
71857;BME280;63344;46.980;28.882;2024-01-15T03:11:38;99794.69;;;-8.10;86.54
71857;BME280;63344;46.980;28.882;2024-01-15T03:14:06;99822.03;;;-8.16;85.55
71857;BME280;63344;46.980;28.882;2024-01-15T03:16:33;99810.28;;;-8.42;85.41
71857;BME280;63344;46.980;28.882;2024-01-15T03:19:01;99813.72;;;-8.43;85.41
71857;BME280;63344;46.980;28.882;2024-01-15T03:21:28;99808.97;;;-8.24;86.95
71857;BME280;63344;46.980;28.882;2024-01-15T03:23:56;99808.06;;;-7.88;87.29
71857;BME280;63344;46.980;28.882;2024-01-15T03:26:24;99808.06;;;-7.88;86.75
71857;BME280;63344;46.980;28.882;2024-01-15T03:28:51;99803.56;;;-7.98;85.68
71857;BME280;63344;46.980;28.882;2024-01-15T03:31:20;99797.03;;;-8.21;84.95
71857;BME280;63344;46.980;28.882;2024-01-15T03:33:47;99796.56;;;-8.41;84.01
71857;BME280;63344;46.980;28.882;2024-01-15T03:36:17;99795.38;;;-8.55;84.32
71857;BME280;63344;46.980;28.882;2024-01-15T03:38:44;99818.41;;;-8.61;84.12
71857;BME280;63344;46.980;28.882;2024-01-15T03:41:11;99810.13;;;-8.83;84.14
71857;BME280;63344;46.980;28.882;2024-01-15T03:43:40;99812.59;;;-8.87;84.22
71857;BME280;63344;46.980;28.882;2024-01-15T03:46:07;99832.31;;;-8.88;84.39
71857;BME280;63344;46.980;28.882;2024-01-15T03:48:40;99801.03;;;-9.03;84.84
71857;BME280;63344;46.980;28.882;2024-01-15T03:54:01;99791.59;;;-9.36;83.86
71857;BME280;63344;46.980;28.882;2024-01-15T03:56:32;99839.22;;;-9.17;83.65
71857;BME280;63344;46.980;28.882;2024-01-15T03:59:04;99859.41;;;-9.31;83.57
71857;BME280;63344;46.980;28.882;2024-01-15T04:01:33;99825.16;;;-9.60;83.38
71857;BME280;63344;46.980;28.882;2024-01-15T04:04:02;99822.28;;;-9.71;82.88
71857;BME280;63344;46.980;28.882;2024-01-15T04:06:46;99788.69;;;-9.77;84.06
71857;BME280;63344;46.980;28.882;2024-01-15T04:09:15;99820.19;;;-9.24;85.35
71857;BME280;63344;46.980;28.882;2024-01-15T04:11:42;99840.91;;;-8.54;86.92
71857;BME280;63344;46.980;28.882;2024-01-15T04:14:09;99842.78;;;-8.47;85.83
71857;BME280;63344;46.980;28.882;2024-01-15T04:16:41;99819.69;;;-8.77;84.92
71857;BME280;63344;46.980;28.882;2024-01-15T04:19:08;99839.97;;;-8.89;84.43
71857;BME280;63344;46.980;28.882;2024-01-15T04:21:36;99819.44;;;-9.19;83.90
71857;BME280;63344;46.980;28.882;2024-01-15T04:24:04;99816.38;;;-9.06;84.94
71857;BME280;63344;46.980;28.882;2024-01-15T04:27:13;99836.69;;;-8.84;85.31
71857;BME280;63344;46.980;28.882;2024-01-15T04:29:56;99806.38;;;-8.95;85.57
71857;BME280;63344;46.980;28.882;2024-01-15T04:32:52;99780.19;;;-9.14;85.01
71857;BME280;63344;46.980;28.882;2024-01-15T04:35:21;99797.28;;;-9.16;83.83
71857;BME280;63344;46.980;28.882;2024-01-15T04:37:48;99770.91;;;-9.39;84.00
71857;BME280;63344;46.980;28.882;2024-01-15T04:40:16;99802.78;;;-9.01;84.67
71857;BME280;63344;46.980;28.882;2024-01-15T04:42:46;99797.63;;;-9.02;84.36
71857;BME280;63344;46.980;28.882;2024-01-15T04:45:15;99768.97;;;-9.16;84.30
71857;BME280;63344;46.980;28.882;2024-01-15T04:47:42;99781.72;;;-8.87;85.97
71857;BME280;63344;46.980;28.882;2024-01-15T04:50:10;99782.38;;;-8.61;86.76
71857;BME280;63344;46.980;28.882;2024-01-15T04:52:37;99793.38;;;-8.30;86.65
71857;BME280;63344;46.980;28.882;2024-01-15T04:55:05;99796.00;;;-8.27;86.04
71857;BME280;63344;46.980;28.882;2024-01-15T04:57:32;99779.03;;;-8.57;84.43
71857;BME280;63344;46.980;28.882;2024-01-15T05:00:02;99814.19;;;-8.57;84.29
71857;BME280;63344;46.980;28.882;2024-01-15T05:02:31;99756.19;;;-9.14;83.33
71857;BME280;63344;46.980;28.882;2024-01-15T05:04:59;99777.31;;;-8.91;84.92
71857;BME280;63344;46.980;28.882;2024-01-15T05:07:26;99803.59;;;-8.70;84.82
71857;BME280;63344;46.980;28.882;2024-01-15T05:09:53;99772.88;;;-8.64;85.93
71857;BME280;63344;46.980;28.882;2024-01-15T05:12:20;99768.25;;;-8.41;86.63
71857;BME280;63344;46.980;28.882;2024-01-15T05:14:48;99754.75;;;-8.30;86.24
71857;BME280;63344;46.980;28.882;2024-01-15T05:17:15;99786.47;;;-7.93;86.62
71857;BME280;63344;46.980;28.882;2024-01-15T05:19:44;99768.53;;;-7.90;86.20
71857;BME280;63344;46.980;28.882;2024-01-15T05:22:16;99803.88;;;-7.42;86.58
71857;BME280;63344;46.980;28.882;2024-01-15T05:24:43;99758.00;;;-7.58;85.53
71857;BME280;63344;46.980;28.882;2024-01-15T05:27:11;99803.34;;;-7.26;85.49
71857;BME280;63344;46.980;28.882;2024-01-15T05:29:39;99747.81;;;-7.52;85.12
71857;BME280;63344;46.980;28.882;2024-01-15T05:32:08;99780.91;;;-7.30;85.21
71857;BME280;63344;46.980;28.882;2024-01-15T05:34:36;99722.59;;;-7.69;84.66
71857;BME280;63344;46.980;28.882;2024-01-15T05:37:33;99743.63;;;-7.46;85.03
71857;BME280;63344;46.980;28.882;2024-01-15T05:40:01;99746.38;;;-7.38;84.71
71857;BME280;63344;46.980;28.882;2024-01-15T05:42:28;99736.06;;;-7.38;84.49
71857;BME280;63344;46.980;28.882;2024-01-15T05:44:57;99726.69;;;-7.33;84.71
71857;BME280;63344;46.980;28.882;2024-01-15T05:47:26;99725.31;;;-7.14;84.89
71857;BME280;63344;46.980;28.882;2024-01-15T05:49:54;99756.69;;;-6.89;84.47
71857;BME280;63344;46.980;28.882;2024-01-15T05:52:21;99775.06;;;-6.72;84.37
71857;BME280;63344;46.980;28.882;2024-01-15T05:54:50;99769.91;;;-6.72;84.18
71857;BME280;63344;46.980;28.882;2024-01-15T05:57:17;99776.91;;;-6.65;83.54
71857;BME280;63344;46.980;28.882;2024-01-15T05:59:45;99736.94;;;-6.89;83.40
71857;BME280;63344;46.980;28.882;2024-01-15T06:02:12;99741.44;;;-6.75;83.58
71857;BME280;63344;46.980;28.882;2024-01-15T06:04:40;99786.84;;;-6.36;83.02
71857;BME280;63344;46.980;28.882;2024-01-15T06:07:07;99752.28;;;-6.45;82.42
71857;BME280;63344;46.980;28.882;2024-01-15T06:09:36;99779.22;;;-6.27;82.29
71857;BME280;63344;46.980;28.882;2024-01-15T06:12:04;99794.13;;;-6.12;81.93
71857;BME280;63344;46.980;28.882;2024-01-15T06:14:32;99743.78;;;-6.37;81.69
71857;BME280;63344;46.980;28.882;2024-01-15T06:17:00;99756.94;;;-6.22;81.46
71857;BME280;63344;46.980;28.882;2024-01-15T06:19:28;99770.78;;;-6.15;81.49
71857;BME280;63344;46.980;28.882;2024-01-15T06:21:55;99789.00;;;-6.08;81.36
71857;BME280;63344;46.980;28.882;2024-01-15T06:24:24;99769.00;;;-6.23;81.24
71857;BME280;63344;46.980;28.882;2024-01-15T06:26:51;99800.22;;;-6.06;81.37
71857;BME280;63344;46.980;28.882;2024-01-15T06:29:19;99732.66;;;-6.35;80.93
71857;BME280;63344;46.980;28.882;2024-01-15T06:31:47;99779.63;;;-6.03;81.16
71857;BME280;63344;46.980;28.882;2024-01-15T06:34:17;99757.09;;;-6.10;81.02
71857;BME280;63344;46.980;28.882;2024-01-15T06:36:44;99753.69;;;-6.07;80.46
71857;BME280;63344;46.980;28.882;2024-01-15T06:39:37;99785.84;;;-5.87;80.37
71857;BME280;63344;46.980;28.882;2024-01-15T06:42:05;99761.41;;;-6.10;80.25
71857;BME280;63344;46.980;28.882;2024-01-15T06:44:32;99777.97;;;-5.94;80.26
71857;BME280;63344;46.980;28.882;2024-01-15T06:47:03;99768.56;;;-5.88;79.90
71857;BME280;63344;46.980;28.882;2024-01-15T06:49:31;99731.94;;;-6.23;79.39
71857;BME280;63344;46.980;28.882;2024-01-15T06:51:58;99709.41;;;-6.33;79.31
71857;BME280;63344;46.980;28.882;2024-01-15T06:54:26;99772.66;;;-6.07;79.71
71857;BME280;63344;46.980;28.882;2024-01-15T06:56:56;99756.31;;;-6.04;80.04
71857;BME280;63344;46.980;28.882;2024-01-15T06:59:23;99738.25;;;-6.01;79.90
71857;BME280;63344;46.980;28.882;2024-01-15T07:02:04;99709.06;;;-5.92;79.97
71857;BME280;63344;46.980;28.882;2024-01-15T07:04:32;99702.28;;;-5.84;79.74
71857;BME280;63344;46.980;28.882;2024-01-15T07:07:00;99706.81;;;-5.66;79.73
71857;BME280;63344;46.980;28.882;2024-01-15T07:09:28;99717.31;;;-5.49;79.33
71857;BME280;63344;46.980;28.882;2024-01-15T07:12:09;99694.06;;;-5.48;79.05
71857;BME280;63344;46.980;28.882;2024-01-15T07:15:02;99745.31;;;-5.14;79.13
71857;BME280;63344;46.980;28.882;2024-01-15T07:17:31;99686.53;;;-5.26;78.81
71857;BME280;63344;46.980;28.882;2024-01-15T07:19:59;99708.34;;;-5.03;78.65
71857;BME280;63344;46.980;28.882;2024-01-15T07:22:29;99696.28;;;-4.99;77.71
71857;BME280;63344;46.980;28.882;2024-01-15T07:24:57;99738.00;;;-4.67;77.17
71857;BME280;63344;46.980;28.882;2024-01-15T07:27:27;99716.34;;;-4.73;76.77
71857;BME280;63344;46.980;28.882;2024-01-15T07:30:23;99724.31;;;-4.46;77.45
71857;BME280;63344;46.980;28.882;2024-01-15T07:32:51;99691.44;;;-4.59;76.82
71857;BME280;63344;46.980;28.882;2024-01-15T07:35:22;99720.06;;;-4.36;76.92
71857;BME280;63344;46.980;28.882;2024-01-15T07:37:50;99700.25;;;-4.28;76.34
71857;BME280;63344;46.980;28.882;2024-01-15T07:40:17;99732.47;;;-3.84;76.28
71857;BME280;63344;46.980;28.882;2024-01-15T07:42:44;99727.31;;;-3.81;75.65
71857;BME280;63344;46.980;28.882;2024-01-15T07:45:11;99701.31;;;-3.95;75.00
71857;BME280;63344;46.980;28.882;2024-01-15T07:47:43;99702.13;;;-4.04;74.37
71857;BME280;63344;46.980;28.882;2024-01-15T07:50:12;99683.94;;;-4.13;73.95
71857;BME280;63344;46.980;28.882;2024-01-15T07:52:40;99676.16;;;-4.13;73.98
71857;BME280;63344;46.980;28.882;2024-01-15T07:55:12;99686.59;;;-3.97;73.94
71857;BME280;63344;46.980;28.882;2024-01-15T07:57:40;99671.88;;;-4.05;73.82
71857;BME280;63344;46.980;28.882;2024-01-15T08:00:08;99716.97;;;-3.72;73.65
71857;BME280;63344;46.980;28.882;2024-01-15T08:02:37;99669.41;;;-3.77;74.05
71857;BME280;63344;46.980;28.882;2024-01-15T08:05:04;99696.31;;;-3.40;73.59
71857;BME280;63344;46.980;28.882;2024-01-15T08:07:34;99683.38;;;-3.29;72.98
71857;BME280;63344;46.980;28.882;2024-01-15T08:10:02;99710.25;;;-2.99;72.29
71857;BME280;63344;46.980;28.882;2024-01-15T08:12:30;99665.22;;;-3.09;71.77
71857;BME280;63344;46.980;28.882;2024-01-15T08:14:58;99671.28;;;-2.84;71.41
71857;BME280;63344;46.980;28.882;2024-01-15T08:17:25;99660.03;;;-2.78;70.09
71857;BME280;63344;46.980;28.882;2024-01-15T08:19:56;99676.50;;;-2.53;70.68
71857;BME280;63344;46.980;28.882;2024-01-15T08:22:24;99680.75;;;-2.26;70.15
71857;BME280;63344;46.980;28.882;2024-01-15T08:24:52;99697.19;;;-2.08;69.64
71857;BME280;63344;46.980;28.882;2024-01-15T08:27:22;99641.72;;;-2.18;68.70
71857;BME280;63344;46.980;28.882;2024-01-15T08:29:50;99663.28;;;-1.82;68.78
71857;BME280;63344;46.980;28.882;2024-01-15T08:32:18;99654.56;;;-1.69;67.73
71857;BME280;63344;46.980;28.882;2024-01-15T08:34:55;99692.50;;;-1.25;67.78
71857;BME280;63344;46.980;28.882;2024-01-15T08:37:38;99647.41;;;-1.36;66.39
71857;BME280;63344;46.980;28.882;2024-01-15T08:40:07;99660.53;;;-1.45;66.84
71857;BME280;63344;46.980;28.882;2024-01-15T08:42:35;99671.75;;;-1.37;66.66
71857;BME280;63344;46.980;28.882;2024-01-15T08:45:03;99652.66;;;-1.39;67.27
71857;BME280;63344;46.980;28.882;2024-01-15T08:47:30;99674.19;;;-1.14;67.42
71857;BME280;63344;46.980;28.882;2024-01-15T08:49:57;99686.19;;;-0.87;66.72
71857;BME280;63344;46.980;28.882;2024-01-15T08:52:26;99692.97;;;-0.66;65.91
71857;BME280;63344;46.980;28.882;2024-01-15T08:55:03;99642.75;;;-0.88;64.74
71857;BME280;63344;46.980;28.882;2024-01-15T08:57:31;99646.13;;;-0.75;63.87
71857;BME280;63344;46.980;28.882;2024-01-15T08:59:58;99663.22;;;-0.46;63.98
71857;BME280;63344;46.980;28.882;2024-01-15T09:02:26;99650.91;;;-0.30;64.09
71857;BME280;63344;46.980;28.882;2024-01-15T09:04:54;99615.06;;;-0.14;62.93
71857;BME280;63344;46.980;28.882;2024-01-15T09:07:21;99666.44;;;0.53;62.12
71857;BME280;63344;46.980;28.882;2024-01-15T09:09:49;99645.47;;;0.59;60.10
71857;BME280;63344;46.980;28.882;2024-01-15T09:12:16;99626.03;;;0.77;59.56
71857;BME280;63344;46.980;28.882;2024-01-15T09:14:45;99621.66;;;0.79;58.48
71857;BME280;63344;46.980;28.882;2024-01-15T09:17:13;99621.41;;;0.95;58.20
71857;BME280;63344;46.980;28.882;2024-01-15T09:19:40;99600.31;;;1.07;58.37
71857;BME280;63344;46.980;28.882;2024-01-15T09:22:10;99629.09;;;1.55;58.35
71857;BME280;63344;46.980;28.882;2024-01-15T09:24:51;99608.06;;;1.62;57.05
71857;BME280;63344;46.980;28.882;2024-01-15T09:27:26;99594.84;;;1.68;57.46
71857;BME280;63344;46.980;28.882;2024-01-15T09:29:54;99601.69;;;1.76;56.83
71857;BME280;63344;46.980;28.882;2024-01-15T09:32:21;99601.56;;;1.83;56.70
71857;BME280;63344;46.980;28.882;2024-01-15T09:34:49;99601.69;;;1.75;56.13
71857;BME280;63344;46.980;28.882;2024-01-15T09:37:16;99597.19;;;1.83;55.77
71857;BME280;63344;46.980;28.882;2024-01-15T09:40:05;99605.59;;;2.78;55.47
71857;BME280;63344;46.980;28.882;2024-01-15T09:42:34;99571.28;;;3.56;52.66
71857;BME280;63344;46.980;28.882;2024-01-15T09:45:03;99553.94;;;4.42;51.48
71857;BME280;63344;46.980;28.882;2024-01-15T09:47:30;99570.09;;;6.35;48.59
71857;BME280;63344;46.980;28.882;2024-01-15T09:49:59;99577.53;;;8.33;43.60
71857;BME280;63344;46.980;28.882;2024-01-15T09:52:28;99573.69;;;8.96;41.35
71857;BME280;63344;46.980;28.882;2024-01-15T09:55:01;99560.91;;;9.91;40.42
71857;BME280;63344;46.980;28.882;2024-01-15T09:57:31;99565.63;;;10.67;37.69
71857;BME280;63344;46.980;28.882;2024-01-15T10:00:01;99523.22;;;11.12;36.53
71857;BME280;63344;46.980;28.882;2024-01-15T10:02:31;99530.00;;;11.32;35.14
71857;BME280;63344;46.980;28.882;2024-01-15T10:04:59;99565.94;;;11.53;35.65
71857;BME280;63344;46.980;28.882;2024-01-15T10:07:29;99514.59;;;11.67;35.07
71857;BME280;63344;46.980;28.882;2024-01-15T10:09:57;99522.84;;;11.18;33.96
71857;BME280;63344;46.980;28.882;2024-01-15T10:12:24;99559.81;;;9.78;35.82
71857;BME280;63344;46.980;28.882;2024-01-15T10:14:56;99527.56;;;9.52;37.98
71857;BME280;63344;46.980;28.882;2024-01-15T10:17:24;99517.81;;;10.20;37.70
71857;BME280;63344;46.980;28.882;2024-01-15T10:20:11;99532.31;;;10.30;36.27
71857;BME280;63344;46.980;28.882;2024-01-15T10:22:41;99528.78;;;9.29;37.63
71857;BME280;63344;46.980;28.882;2024-01-15T10:25:13;99502.19;;;8.04;38.73
71857;BME280;63344;46.980;28.882;2024-01-15T10:27:41;99465.50;;;6.98;40.96
71857;BME280;63344;46.980;28.882;2024-01-15T10:30:10;99472.16;;;6.22;42.77
71857;BME280;63344;46.980;28.882;2024-01-15T10:32:38;99471.41;;;6.18;43.87
71857;BME280;63344;46.980;28.882;2024-01-15T10:35:07;99494.31;;;6.83;44.43
71857;BME280;63344;46.980;28.882;2024-01-15T10:37:34;99493.88;;;7.14;43.82
71857;BME280;63344;46.980;28.882;2024-01-15T10:40:03;99515.84;;;7.14;43.83
71857;BME280;63344;46.980;28.882;2024-01-15T10:42:33;99498.16;;;7.16;43.88
71857;BME280;63344;46.980;28.882;2024-01-15T10:45:01;99506.91;;;7.39;42.97
71857;BME280;63344;46.980;28.882;2024-01-15T10:47:29;99506.75;;;7.42;42.73
71857;BME280;63344;46.980;28.882;2024-01-15T10:50:05;99471.91;;;7.13;42.25
71857;BME280;63344;46.980;28.882;2024-01-15T10:52:35;99497.25;;;7.77;42.50
71857;BME280;63344;46.980;28.882;2024-01-15T10:55:04;99464.31;;;8.04;41.93
71857;BME280;63344;46.980;28.882;2024-01-15T10:57:38;99471.22;;;7.68;42.10
71857;BME280;63344;46.980;28.882;2024-01-15T11:00:10;99437.13;;;6.83;42.59
71857;BME280;63344;46.980;28.882;2024-01-15T11:02:44;99457.06;;;6.04;44.12
71857;BME280;63344;46.980;28.882;2024-01-15T11:05:12;99465.03;;;6.02;45.08
71857;BME280;63344;46.980;28.882;2024-01-15T11:07:43;99453.16;;;5.67;45.09
71857;BME280;63344;46.980;28.882;2024-01-15T11:10:50;99467.66;;;5.78;46.03
71857;BME280;63344;46.980;28.882;2024-01-15T11:16:53;99440.13;;;5.40;46.05
71857;BME280;63344;46.980;28.882;2024-01-15T11:19:24;99450.59;;;5.42;46.26
71857;BME280;63344;46.980;28.882;2024-01-15T11:25:36;99435.75;;;5.39;47.08
71857;BME280;63344;46.980;28.882;2024-01-15T11:28:07;99419.00;;;5.42;47.24
71857;BME280;63344;46.980;28.882;2024-01-15T11:30:34;99408.75;;;5.34;47.38
71857;BME280;63344;46.980;28.882;2024-01-15T11:33:04;99435.31;;;5.28;47.56
71857;BME280;63344;46.980;28.882;2024-01-15T11:35:49;99422.19;;;5.26;48.15
71857;BME280;63344;46.980;28.882;2024-01-15T11:38:28;99421.63;;;5.18;48.56
71857;BME280;63344;46.980;28.882;2024-01-15T11:40:59;99391.41;;;4.79;48.73
71857;BME280;63344;46.980;28.882;2024-01-15T11:43:34;99374.09;;;4.22;50.30
71857;BME280;63344;46.980;28.882;2024-01-15T11:46:02;99436.94;;;4.28;50.82
71857;BME280;63344;46.980;28.882;2024-01-15T11:48:42;99387.72;;;4.07;51.61
71857;BME280;63344;46.980;28.882;2024-01-15T11:51:16;99403.19;;;4.16;51.88
71857;BME280;63344;46.980;28.882;2024-01-15T11:53:48;99408.44;;;4.16;51.77
71857;BME280;63344;46.980;28.882;2024-01-15T11:56:20;99409.84;;;3.99;52.18
71857;BME280;63344;46.980;28.882;2024-01-15T11:58:49;99371.53;;;3.92;52.25
71857;BME280;63344;46.980;28.882;2024-01-15T12:01:19;99422.66;;;4.09;52.39
71857;BME280;63344;46.980;28.882;2024-01-15T12:03:54;99387.72;;;3.78;52.28
71857;BME280;63344;46.980;28.882;2024-01-15T12:06:21;99367.28;;;3.60;53.27
71857;BME280;63344;46.980;28.882;2024-01-15T12:08:51;99400.81;;;3.80;53.06
71857;BME280;63344;46.980;28.882;2024-01-15T12:11:45;99386.34;;;3.67;53.67
71857;BME280;63344;46.980;28.882;2024-01-15T12:14:22;99374.38;;;3.58;53.50
71857;BME280;63344;46.980;28.882;2024-01-15T12:16:55;99385.44;;;3.68;53.74
71857;BME280;63344;46.980;28.882;2024-01-15T12:19:48;99363.94;;;3.55;53.67
71857;BME280;63344;46.980;28.882;2024-01-15T12:22:18;99350.03;;;3.51;54.00
71857;BME280;63344;46.980;28.882;2024-01-15T12:25:27;99399.31;;;3.71;54.12
71857;BME280;63344;46.980;28.882;2024-01-15T12:27:56;99358.28;;;3.39;55.14
71857;BME280;63344;46.980;28.882;2024-01-15T12:30:47;99378.59;;;3.34;56.26
71857;BME280;63344;46.980;28.882;2024-01-15T12:34:03;99386.88;;;3.18;56.50
71857;BME280;63344;46.980;28.882;2024-01-15T12:36:36;99351.69;;;2.96;57.24
71857;BME280;63344;46.980;28.882;2024-01-15T12:39:06;99383.31;;;3.21;57.23
71857;BME280;63344;46.980;28.882;2024-01-15T12:41:39;99387.03;;;3.14;57.53
71857;BME280;63344;46.980;28.882;2024-01-15T12:44:33;99382.81;;;3.08;58.40
71857;BME280;63344;46.980;28.882;2024-01-15T12:47:16;99337.44;;;2.73;58.58
71857;BME280;63344;46.980;28.882;2024-01-15T12:49:54;99362.44;;;2.87;58.60
71857;BME280;63344;46.980;28.882;2024-01-15T12:52:32;99383.97;;;2.98;58.97
71857;BME280;63344;46.980;28.882;2024-01-15T12:54:59;99354.56;;;2.87;59.48
71857;BME280;63344;46.980;28.882;2024-01-15T12:57:27;99342.59;;;2.78;59.27
71857;BME280;63344;46.980;28.882;2024-01-15T12:59:54;99344.88;;;2.89;59.55
71857;BME280;63344;46.980;28.882;2024-01-15T13:02:21;99354.59;;;2.85;59.92
71857;BME280;63344;46.980;28.882;2024-01-15T13:05:10;99338.78;;;2.88;59.98
71857;BME280;63344;46.980;28.882;2024-01-15T13:07:40;99327.88;;;2.72;60.34
71857;BME280;63344;46.980;28.882;2024-01-15T13:10:08;99312.44;;;2.62;60.42
71857;BME280;63344;46.980;28.882;2024-01-15T13:12:43;99328.88;;;2.68;60.80
71857;BME280;63344;46.980;28.882;2024-01-15T13:15:10;99360.97;;;2.76;60.73
71857;BME280;63344;46.980;28.882;2024-01-15T13:17:42;99340.19;;;2.69;61.22
71857;BME280;63344;46.980;28.882;2024-01-15T13:20:12;99302.34;;;2.48;61.37
71857;BME280;63344;46.980;28.882;2024-01-15T13:22:40;99312.72;;;2.51;61.41